Time;durP1;ratioP1;P1;durP2;ratioP2;P2;SDS_P1;SDS_P2;PMS_P1;PMS_P2;Temp;Humidity;BMP_temperature;BMP_pressure;BME280_temperature;BME280_humidity;BME280_pressure;Samples;Min_cycle;Max_cycle;Signal;HPM_P1;HPM_P2
2024/02/03 00:00:42;;;;;;;2.10;1.90;;;;;;;-146.29;100.00;59205.81;5080166;28;20178;-67
2024/02/03 00:03:08;;;;;;;13.23;6.70;;;;;;;-146.29;100.00;59205.81;5084802;28;20204;-68
2024/02/03 00:05:33;;;;;;;12.20;5.70;;;;;;;-146.29;100.00;59205.81;5093880;28;20250;-68
2024/02/03 00:07:59;;;;;;;9.07;5.10;;;;;;;-146.29;100.00;59205.81;5038899;28;20748;-69
2024/02/03 00:10:24;;;;;;;6.77;3.83;;;;;;;-146.29;100.00;59205.81;5049413;28;20184;-69
2024/02/03 00:12:50;;;;;;;3.90;2.80;;;;;;;-146.29;100.00;59205.81;5092830;28;20602;-69
2024/02/03 00:15:16;;;;;;;4.60;3.13;;;;;;;-146.29;100.00;59205.81;5087841;28;20214;-68
2024/02/03 00:17:41;;;;;;;3.77;3.37;;;;;;;-146.29;100.00;59205.81;5079890;28;20185;-69
2024/02/03 00:20:08;;;;;;;3.00;2.70;;;;;;;-146.29;100.00;59205.81;5081549;28;20424;-67
2024/02/03 00:22:33;;;;;;;4.20;2.80;;;;;;;-146.29;100.00;59205.81;5089310;28;20220;-67
2024/02/03 00:24:59;;;;;;;2.50;2.30;;;;;;;-146.29;100.00;59205.81;5081361;28;20437;-68
2024/02/03 00:27:25;;;;;;;2.53;2.17;;;;;;;-146.29;100.00;59205.81;5075136;28;20806;-68
2024/02/03 00:29:50;;;;;;;2.17;2.00;;;;;;;-146.29;100.00;59205.81;5090372;28;20423;-69
2024/02/03 00:32:16;;;;;;;2.13;1.93;;;;;;;-146.29;100.00;59205.81;5073114;28;20581;-68
2024/02/03 00:34:44;;;;;;;2.30;1.90;;;;;;;-146.29;100.00;59205.81;5079538;28;20287;-69
2024/02/03 00:37:09;;;;;;;2.90;1.73;;;;;;;-146.29;100.00;59205.81;5038926;28;20189;-67
2024/02/03 00:39:35;;;;;;;2.70;2.40;;;;;;;-146.29;100.00;59205.81;5087407;28;20916;-68
2024/02/03 00:42:00;;;;;;;2.53;2.17;;;;;;;-146.29;100.00;59205.81;5083629;28;20230;-69
2024/02/03 00:44:26;;;;;;;4.33;1.90;;;;;;;-146.29;100.00;59205.81;5056559;28;20221;-67
2024/02/03 00:46:51;;;;;;;3.93;2.10;;;;;;;-146.29;100.00;59205.81;5089556;28;20537;-67
2024/02/03 00:49:17;;;;;;;2.77;2.27;;;;;;;-146.29;100.00;59205.81;5082600;28;20188;-68
2024/02/03 00:51:42;;;;;;;4.73;2.57;;;;;;;-146.29;100.00;59205.81;5092667;28;20743;-66
2024/02/03 00:54:07;;;;;;;2.73;2.33;;;;;;;-146.29;100.00;59205.81;5089718;28;20238;-67
2024/02/03 00:56:34;;;;;;;4.90;2.67;;;;;;;-146.29;100.00;59205.81;5088637;28;20188;-68
2024/02/03 00:59:01;;;;;;;2.93;2.30;;;;;;;-146.29;100.00;59205.81;5084794;28;20630;-67
2024/02/03 01:01:26;;;;;;;2.60;2.20;;;;;;;-146.29;100.00;59205.81;5096937;28;20458;-68
2024/02/03 01:03:52;;;;;;;2.10;1.90;;;;;;;-146.29;100.00;59205.81;5084625;28;20517;-68
2024/02/03 01:06:17;;;;;;;2.40;2.20;;;;;;;-146.29;100.00;59205.81;5095740;28;20249;-68
2024/02/03 01:08:44;;;;;;;2.30;2.10;;;;;;;-146.29;100.00;59205.81;5085277;28;20182;-69
2024/02/03 01:11:10;;;;;;;2.37;2.10;;;;;;;-146.29;100.00;59205.81;5091475;28;20239;-68
2024/02/03 01:13:35;;;;;;;2.50;2.13;;;;;;;-146.29;100.00;59205.81;5052336;28;20436;-66
2024/02/03 01:16:01;;;;;;;8.50;2.17;;;;;;;-146.29;100.00;59205.81;5083179;28;20292;-68
2024/02/03 01:18:26;;;;;;;2.20;2.00;;;;;;;-146.29;100.00;59205.81;5088709;28;20178;-68
2024/02/03 01:20:52;;;;;;;2.70;2.37;;;;;;;-146.29;100.00;59205.81;5077775;28;20185;-69
2024/02/03 01:23:17;;;;;;;5.70;2.37;;;;;;;-146.29;100.00;59205.81;5091233;28;20288;-69
2024/02/03 01:25:44;;;;;;;2.57;2.27;;;;;;;-146.29;100.00;59205.81;5085234;28;20246;-66
2024/02/03 01:28:10;;;;;;;2.30;2.10;;;;;;;-146.29;100.00;59205.81;5091933;28;20189;-68
2024/02/03 01:30:35;;;;;;;2.80;2.40;;;;;;;-146.29;100.00;59205.81;5091069;28;20420;-67
2024/02/03 01:33:00;;;;;;;4.47;2.27;;;;;;;-146.29;100.00;59205.81;5091853;28;20177;-68
2024/02/03 01:35:27;;;;;;;2.60;2.00;;;;;;;-146.29;100.00;59205.81;5088963;28;20259;-69
2024/02/03 01:37:53;;;;;;;2.47;2.27;;;;;;;-146.29;100.00;59205.81;5091295;28;20729;-68
2024/02/03 01:40:18;;;;;;;2.73;2.50;;;;;;;-146.29;100.00;59205.81;5095937;28;20431;-69
2024/02/03 01:42:44;;;;;;;3.13;2.60;;;;;;;-146.29;100.00;59205.81;5095693;28;20649;-68
2024/02/03 01:45:12;;;;;;;3.30;2.60;;;;;;;-146.29;100.00;59205.81;5080291;28;20198;-66
2024/02/03 01:47:38;;;;;;;4.67;2.70;;;;;;;-146.29;100.00;59205.81;5080114;28;20612;-70
2024/02/03 01:50:04;;;;;;;2.40;2.20;;;;;;;-146.29;100.00;59205.81;5069889;28;20469;-70
2024/02/03 01:52:31;;;;;;;2.67;2.43;;;;;;;-146.29;100.00;59205.81;5070072;28;20514;-69
2024/02/03 01:54:57;;;;;;;2.20;2.10;;;;;;;-146.29;100.00;59205.81;5087442;28;20479;-68
2024/02/03 01:57:23;;;;;;;3.07;2.20;;;;;;;-146.29;100.00;59205.81;5087615;28;20416;-68
2024/02/03 01:59:49;;;;;;;2.90;1.80;;;;;;;-146.29;100.00;59205.81;5069982;28;20205;-67
2024/02/03 02:02:14;;;;;;;3.43;2.53;;;;;;;-146.29;100.00;59205.81;5084983;28;20505;-69
2024/02/03 02:04:40;;;;;;;2.80;2.10;;;;;;;-146.29;100.00;59205.81;5084978;28;20205;-69
2024/02/03 02:07:05;;;;;;;5.03;2.60;;;;;;;-146.29;100.00;59205.81;5093022;28;20185;-68
2024/02/03 02:09:31;;;;;;;2.83;2.53;;;;;;;-146.29;100.00;59205.81;5078850;28;20190;-69
2024/02/03 02:11:56;;;;;;;3.33;2.10;;;;;;;-146.29;100.00;59205.81;5088375;28;20189;-68
2024/02/03 02:14:23;;;;;;;8.53;2.00;;;;;;;-146.29;100.00;59205.81;5084951;28;20225;-69
2024/02/03 02:16:49;;;;;;;2.73;2.07;;;;;;;-146.29;100.00;59205.81;5083653;28;20258;-69
2024/02/03 02:19:18;;;;;;;2.00;1.90;;;;;;;-146.29;100.00;59205.81;5055094;28;20424;-69
2024/02/03 02:21:43;;;;;;;1.97;1.80;;;;;;;-146.29;100.00;59205.81;5077192;28;20470;-70
2024/02/03 02:24:10;;;;;;;2.80;2.17;;;;;;;-146.29;100.00;59205.81;5093355;28;20454;-68
2024/02/03 02:26:35;;;;;;;3.23;2.13;;;;;;;-146.29;100.00;59205.81;5091271;28;20188;-68
2024/02/03 02:29:01;;;;;;;5.50;2.17;;;;;;;-146.29;100.00;59205.81;5094982;28;20940;-68
2024/02/03 02:31:26;;;;;;;3.53;2.23;;;;;;;-146.29;100.00;59205.81;5090178;28;20193;-69
2024/02/03 02:33:52;;;;;;;2.53;2.20;;;;;;;-146.29;100.00;59205.81;5102261;28;20181;-70
2024/02/03 02:36:17;;;;;;;3.57;2.43;;;;;;;-146.29;100.00;59205.81;5092349;28;20233;-68
2024/02/03 02:38:43;;;;;;;2.63;2.33;;;;;;;-146.29;100.00;59205.81;5082566;28;20190;-68
2024/02/03 02:41:09;;;;;;;2.87;2.23;;;;;;;-146.29;100.00;59205.81;5088717;28;20169;-68
2024/02/03 02:43:34;;;;;;;2.70;2.03;;;;;;;-146.29;100.00;59205.81;5100106;28;20217;-69
2024/02/03 02:46:00;;;;;;;3.63;2.37;;;;;;;-146.29;100.00;59205.81;5093664;28;20443;-69
2024/02/03 02:48:25;;;;;;;2.40;2.20;;;;;;;-146.29;100.00;59205.81;5087393;28;20231;-70
2024/02/03 02:50:51;;;;;;;2.90;2.40;;;;;;;-146.29;100.00;59205.81;5093831;28;20193;-68
2024/02/03 02:53:16;;;;;;;2.57;2.33;;;;;;;-146.29;100.00;59205.81;5096601;28;20181;-70
2024/02/03 02:55:41;;;;;;;3.13;2.00;;;;;;;-146.29;100.00;59205.81;5087480;28;20213;-69
2024/02/03 02:58:07;;;;;;;4.43;1.70;;;;;;;-146.29;100.00;59205.81;5090113;28;20181;-70
2024/02/03 03:00:32;;;;;;;2.17;1.70;;;;;;;-146.29;100.00;59205.81;5090717;28;20190;-69
2024/02/03 03:02:58;;;;;;;2.20;2.00;;;;;;;-146.29;100.00;59205.81;5091101;28;20242;-69
2024/02/03 03:05:23;;;;;;;1.83;1.73;;;;;;;-146.29;100.00;59205.81;5095680;28;20193;-69
2024/02/03 03:07:49;;;;;;;2.33;2.10;;;;;;;-146.29;100.00;59205.81;5082113;28;20213;-70
2024/02/03 03:10:15;;;;;;;2.37;2.17;;;;;;;-146.29;100.00;59205.81;5086812;28;20181;-70
2024/02/03 03:12:40;;;;;;;2.13;1.93;;;;;;;-146.29;100.00;59205.81;5092053;28;21078;-70
2024/02/03 03:15:06;;;;;;;1.93;1.83;;;;;;;-146.29;100.00;59205.81;5090424;28;20294;-70
2024/02/03 03:17:31;;;;;;;2.77;1.90;;;;;;;-146.29;100.00;59205.81;5090910;28;20580;-69
2024/02/03 03:19:57;;;;;;;2.63;1.60;;;;;;;-146.29;100.00;59205.81;5095968;28;20200;-69
2024/02/03 03:22:22;;;;;;;2.10;1.90;;;;;;;-146.29;100.00;59205.81;5097211;28;20190;-70
2024/02/03 03:24:48;;;;;;;2.93;2.13;;;;;;;-146.29;100.00;59205.81;5102302;28;20686;-69
2024/02/03 03:27:13;;;;;;;2.93;2.37;;;;;;;-146.29;100.00;59205.81;5102030;28;20261;-68
2024/02/03 03:29:39;;;;;;;2.33;2.10;;;;;;;-146.29;100.00;59205.81;5091633;28;20188;-69
2024/02/03 03:32:04;;;;;;;2.20;1.90;;;;;;;-146.29;100.00;59205.81;5077669;28;20174;-70
2024/02/03 03:34:30;;;;;;;3.30;1.80;;;;;;;-146.29;100.00;59205.81;5074882;28;20275;-70
2024/02/03 03:36:56;;;;;;;2.20;2.00;;;;;;;-146.29;100.00;59205.81;5081975;28;20260;-69
2024/02/03 03:39:21;;;;;;;7.93;2.10;;;;;;;-146.29;100.00;59205.81;5093738;28;20419;-70
2024/02/03 03:41:47;;;;;;;1.90;1.70;;;;;;;-146.29;100.00;59205.81;5096985;28;20205;-68
2024/02/03 03:44:12;;;;;;;3.03;1.80;;;;;;;-146.29;100.00;59205.81;5091788;28;20178;-70
2024/02/03 03:46:38;;;;;;;3.43;1.80;;;;;;;-146.29;100.00;59205.81;5087439;28;20269;-68
2024/02/03 03:49:04;;;;;;;2.20;2.00;;;;;;;-146.29;100.00;59205.81;5097164;28;20189;-69
2024/02/03 03:51:29;;;;;;;2.17;1.90;;;;;;;-146.29;100.00;59205.81;5096706;28;20268;-71
2024/02/03 03:53:55;;;;;;;4.00;1.97;;;;;;;-146.29;100.00;59205.81;5087726;28;20273;-69
2024/02/03 03:56:20;;;;;;;2.30;2.10;;;;;;;-146.29;100.00;59205.81;5086883;28;20285;-69
2024/02/03 03:58:46;;;;;;;2.90;2.10;;;;;;;-146.29;100.00;59205.81;5085569;28;20277;-69
2024/02/03 04:01:11;;;;;;;2.90;2.27;;;;;;;-146.29;100.00;59205.81;5089643;28;20195;-67
2024/02/03 04:03:37;;;;;;;2.13;1.93;;;;;;;-146.29;100.00;59205.81;5088190;28;20212;-69
2024/02/03 04:06:02;;;;;;;2.50;2.10;;;;;;;-146.29;100.00;59205.81;5089359;28;20733;-68
2024/02/03 04:08:28;;;;;;;2.57;2.37;;;;;;;-146.29;100.00;59205.81;5089533;28;20209;-69
2024/02/03 04:10:53;;;;;;;3.10;2.20;;;;;;;-146.29;100.00;59205.81;5076993;28;20185;-69
2024/02/03 04:13:19;;;;;;;2.67;2.30;;;;;;;-146.29;100.00;59205.81;5095999;28;20235;-69
2024/02/03 04:15:45;;;;;;;3.23;2.50;;;;;;;-146.29;100.00;59205.81;5070585;28;20244;-68
2024/02/03 04:18:11;;;;;;;2.33;2.03;;;;;;;-146.29;100.00;59205.81;5090012;28;20198;-67
2024/02/03 04:20:36;;;;;;;2.50;2.30;;;;;;;-146.29;100.00;59205.81;5091703;28;20185;-69
2024/02/03 04:23:02;;;;;;;2.50;2.30;;;;;;;-146.29;100.00;59205.81;5093569;28;20193;-69
2024/02/03 04:25:27;;;;;;;2.20;2.00;;;;;;;-146.29;100.00;59205.81;5079136;28;20239;-69
2024/02/03 04:27:53;;;;;;;2.50;2.30;;;;;;;-146.29;100.00;59205.81;5082143;28;20184;-69
2024/02/03 04:30:19;;;;;;;2.43;2.23;;;;;;;-146.29;100.00;59205.81;5070652;28;20625;-67
2024/02/03 04:32:45;;;;;;;2.50;2.30;;;;;;;-146.29;100.00;59205.81;5081884;28;20185;-68
2024/02/03 04:35:11;;;;;;;4.23;2.43;;;;;;;-146.29;100.00;59205.81;5096726;28;20465;-69
2024/02/03 04:37:36;;;;;;;2.03;1.93;;;;;;;-146.29;100.00;59205.81;5092250;28;20511;-67
2024/02/03 04:40:02;;;;;;;2.57;2.23;;;;;;;-146.29;100.00;59205.81;5080450;28;20564;-69
2024/02/03 04:42:27;;;;;;;2.67;2.43;;;;;;;-146.29;100.00;59205.81;5085526;28;20248;-70
2024/02/03 04:44:53;;;;;;;2.30;2.10;;;;;;;-146.29;100.00;59205.81;5093701;28;20442;-68
2024/02/03 04:47:18;;;;;;;2.80;2.50;;;;;;;-146.29;100.00;59205.81;5097473;28;20200;-69
2024/02/03 04:49:44;;;;;;;2.27;2.10;;;;;;;-146.29;100.00;59205.81;5088911;28;20177;-68
2024/02/03 04:52:09;;;;;;;2.63;2.43;;;;;;;-146.29;100.00;59205.81;5086934;28;20253;-67
2024/02/03 04:54:35;;;;;;;2.60;2.40;;;;;;;-146.29;100.00;59205.81;5081953;28;20285;-69
2024/02/03 04:57:00;;;;;;;3.53;2.80;;;;;;;-146.29;100.00;59205.81;5078869;28;20838;-69
2024/02/03 04:59:26;;;;;;;3.77;2.57;;;;;;;-146.29;100.00;59205.81;5080567;28;20197;-70
2024/02/03 05:01:51;;;;;;;6.90;2.60;;;;;;;-146.29;100.00;59205.81;5055647;28;20262;-68
2024/02/03 05:04:17;;;;;;;2.70;2.50;;;;;;;-146.29;100.00;59205.81;5058897;28;20190;-67
2024/02/03 05:06:42;;;;;;;3.20;2.60;;;;;;;-146.29;100.00;59205.81;5086470;28;20247;-69
2024/02/03 05:09:08;;;;;;;4.07;2.53;;;;;;;-146.29;100.00;59205.81;5079747;28;20182;-68
2024/02/03 05:11:34;;;;;;;5.23;2.17;;;;;;;-146.29;100.00;59205.81;5062545;28;20178;-69
2024/02/03 05:14:00;;;;;;;2.60;2.40;;;;;;;-146.29;100.00;59205.81;5072984;28;20986;-68
2024/02/03 05:16:26;;;;;;;2.37;2.17;;;;;;;-146.29;100.00;59205.81;5044938;28;20448;-68
2024/02/03 05:18:52;;;;;;;2.43;2.20;;;;;;;-146.29;100.00;59205.81;5085937;28;20650;-67
2024/02/03 05:21:17;;;;;;;2.80;2.60;;;;;;;-146.29;100.00;59205.81;5058219;28;20434;-67
2024/02/03 05:23:43;;;;;;;3.30;2.97;;;;;;;-146.29;100.00;59205.81;5071889;28;20456;-67
2024/02/03 05:26:08;;;;;;;3.13;2.83;;;;;;;-146.29;100.00;59205.81;5088651;28;20225;-67
2024/02/03 05:28:34;;;;;;;3.97;3.00;;;;;;;-146.29;100.00;59205.81;5082783;28;20197;-68
2024/02/03 05:30:59;;;;;;;2.90;2.60;;;;;;;-146.29;100.00;59205.81;5073539;28;20208;-67
2024/02/03 05:33:25;;;;;;;3.73;2.40;;;;;;;-146.29;100.00;59205.81;5079930;28;20242;-69
2024/02/03 05:35:50;;;;;;;3.23;2.40;;;;;;;-146.29;100.00;59205.81;5058201;28;20826;-68
2024/02/03 05:38:16;;;;;;;2.57;2.37;;;;;;;-146.29;100.00;59205.81;5074514;28;20182;-67
2024/02/03 05:40:41;;;;;;;3.73;2.67;;;;;;;-146.29;100.00;59205.81;5080694;28;20267;-69
2024/02/03 05:43:08;;;;;;;3.37;2.67;;;;;;;-146.29;100.00;59205.81;5080298;28;20205;-68
2024/02/03 05:45:33;;;;;;;7.53;3.03;;;;;;;-146.29;100.00;59205.81;5083643;28;21032;-68
2024/02/03 05:47:59;;;;;;;6.87;2.80;;;;;;;-146.29;100.00;59205.81;5069856;28;20425;-69
2024/02/03 05:50:24;;;;;;;2.90;2.40;;;;;;;-146.29;100.00;59205.81;5079782;28;20296;-68
2024/02/03 05:52:50;;;;;;;3.03;2.03;;;;;;;-146.29;100.00;59205.81;5071441;28;20174;-68
2024/02/03 05:55:15;;;;;;;2.00;1.80;;;;;;;-146.29;100.00;59205.81;5076962;28;20559;-68
2024/02/03 05:57:50;;;;;;;3.23;1.90;;;;;;;-146.29;100.00;59205.81;5062038;28;20214;-67
2024/02/03 06:00:16;;;;;;;3.63;2.50;;;;;;;-146.29;100.00;59205.81;5082910;28;20173;-66
2024/02/03 06:02:42;;;;;;;1.83;1.73;;;;;;;-146.29;100.00;59205.81;5069696;28;20474;-68
2024/02/03 06:05:07;;;;;;;2.43;2.20;;;;;;;-146.29;100.00;59205.81;5067349;28;20518;-67
2024/02/03 06:07:33;;;;;;;4.70;2.43;;;;;;;-146.29;100.00;59205.81;5084528;28;20202;-68
2024/02/03 06:09:58;;;;;;;2.23;2.03;;;;;;;-146.29;100.00;59205.81;5084140;28;20182;-69
2024/02/03 06:12:24;;;;;;;2.40;2.20;;;;;;;-146.29;100.00;59205.81;5101370;28;20906;-68
2024/02/03 06:14:49;;;;;;;3.77;2.37;;;;;;;-146.29;100.00;59205.81;5087540;28;20940;-67
2024/02/03 06:17:15;;;;;;;2.80;2.50;;;;;;;-146.29;100.00;59205.81;5084439;28;20252;-67
2024/02/03 06:19:40;;;;;;;3.90;2.20;;;;;;;-146.29;100.00;59205.81;5093089;28;20275;-67
2024/02/03 06:22:05;;;;;;;2.97;2.37;;;;;;;-146.29;100.00;59205.81;5086446;28;21760;-67
2024/02/03 06:24:31;;;;;;;2.60;2.40;;;;;;;-146.29;100.00;59205.81;5085006;28;20347;-67
2024/02/03 06:26:57;;;;;;;2.60;2.23;;;;;;;-146.29;100.00;59205.81;5067237;28;20225;-67
2024/02/03 06:29:22;;;;;;;2.37;2.17;;;;;;;-146.29;100.00;59205.81;5093799;28;20231;-68
2024/02/03 06:31:47;;;;;;;2.17;2.00;;;;;;;-146.29;100.00;59205.81;5084779;28;20273;-69
2024/02/03 06:34:13;;;;;;;3.93;2.37;;;;;;;-146.29;100.00;59205.81;5091401;28;20182;-69
2024/02/03 06:36:39;;;;;;;3.30;2.60;;;;;;;-146.29;100.00;59205.81;5082490;28;20185;-71
2024/02/03 06:39:04;;;;;;;2.47;1.93;;;;;;;-146.29;100.00;59205.81;5083148;28;20663;-67
2024/02/03 06:41:30;;;;;;;2.20;2.00;;;;;;;-146.29;100.00;59205.81;5082540;28;20190;-67
2024/02/03 06:43:55;;;;;;;3.00;2.70;;;;;;;-146.29;100.00;59205.81;5084114;28;20193;-69
2024/02/03 06:46:21;;;;;;;3.80;2.60;;;;;;;-146.29;100.00;59205.81;5084687;28;20204;-69
2024/02/03 06:48:46;;;;;;;3.00;2.70;;;;;;;-146.29;100.00;59205.81;5086894;28;20286;-68
2024/02/03 06:51:12;;;;;;;3.20;2.77;;;;;;;-146.29;100.00;59205.81;5083214;28;20301;-68
2024/02/03 06:53:37;;;;;;;5.30;2.77;;;;;;;-146.29;100.00;59205.81;5084883;28;20872;-68
2024/02/03 06:56:03;;;;;;;2.63;2.43;;;;;;;-146.29;100.00;59205.81;5091443;28;20284;-68
2024/02/03 06:58:28;;;;;;;3.33;2.80;;;;;;;-146.29;100.00;59205.81;5088048;28;20178;-68
2024/02/03 07:00:53;;;;;;;3.37;2.37;;;;;;;-146.29;100.00;59205.81;5092388;28;20192;-68
2024/02/03 07:03:19;;;;;;;2.77;2.57;;;;;;;-146.29;100.00;59205.81;5083765;28;20777;-67
2024/02/03 07:05:44;;;;;;;3.70;3.10;;;;;;;-146.29;100.00;59205.81;5079620;28;20633;-68
2024/02/03 07:08:10;;;;;;;8.37;4.60;;;;;;;-146.29;100.00;59205.81;5092884;28;20769;-67
2024/02/03 07:10:35;;;;;;;6.07;4.27;;;;;;;-146.29;100.00;59205.81;5099330;28;20184;-68
2024/02/03 07:13:01;;;;;;;4.13;3.23;;;;;;;-146.29;100.00;59205.81;5087722;28;20179;-67
2024/02/03 07:15:26;;;;;;;3.43;3.10;;;;;;;-146.29;100.00;59205.81;5095168;28;20307;-69
2024/02/03 07:17:52;;;;;;;3.83;3.40;;;;;;;-146.29;100.00;59205.81;5093743;28;20815;-67
2024/02/03 07:20:17;;;;;;;5.43;3.67;;;;;;;-146.29;100.00;59205.81;5084924;28;20178;-67
2024/02/03 07:22:43;;;;;;;4.37;3.13;;;;;;;-146.29;100.00;59205.81;5080359;28;20255;-68
2024/02/03 07:25:11;;;;;;;7.33;4.30;;;;;;;-146.29;100.00;59205.81;5079934;28;20301;-68
2024/02/03 07:27:36;;;;;;;6.60;3.80;;;;;;;-146.29;100.00;59205.81;5065918;28;20173;-68
2024/02/03 07:30:02;;;;;;;13.70;7.20;;;;;;;-146.29;100.00;59205.81;5090029;28;20949;-67
2024/02/03 07:32:28;;;;;;;38.03;16.20;;;;;;;-146.29;100.00;59205.81;5090037;28;20304;-69
2024/02/03 07:34:53;;;;;;;34.37;19.90;;;;;;;-146.29;100.00;59205.81;5090111;28;20343;-66
2024/02/03 07:37:18;;;;;;;39.90;24.83;;;;;;;-146.29;100.00;59205.81;5088223;28;20330;-65
2024/02/03 07:39:44;;;;;;;59.30;26.33;;;;;;;-146.29;100.00;59205.81;5091577;28;20189;-67
2024/02/03 07:42:09;;;;;;;23.07;11.70;;;;;;;-146.29;100.00;59205.81;5090854;28;20190;-68
2024/02/03 07:44:36;;;;;;;16.63;9.97;;;;;;;-146.29;100.00;59205.81;5071881;28;20750;-67
2024/02/03 07:47:01;;;;;;;24.33;11.10;;;;;;;-146.29;100.00;59205.81;5092464;28;20569;-68
2024/02/03 07:49:27;;;;;;;17.50;10.30;;;;;;;-146.29;100.00;59205.81;5103146;28;20423;-68
2024/02/03 07:51:53;;;;;;;16.10;6.93;;;;;;;-146.29;100.00;59205.81;5097297;28;20209;-67
2024/02/03 07:54:18;;;;;;;24.13;8.40;;;;;;;-146.29;100.00;59205.81;5089912;28;20182;-67
2024/02/03 07:56:43;;;;;;;12.00;7.53;;;;;;;-146.29;100.00;59205.81;5088720;28;20729;-67
2024/02/03 07:59:09;;;;;;;11.07;8.10;;;;;;;-146.29;100.00;59205.81;5094720;28;20190;-67
2024/02/03 08:01:34;;;;;;;16.90;8.50;;;;;;;-146.29;100.00;59205.81;5091350;28;20687;-68
2024/02/03 08:04:01;;;;;;;40.17;19.67;;;;;;;-146.29;100.00;59205.81;5089580;28;20677;-69
2024/02/03 08:06:26;;;;;;;105.20;42.43;;;;;;;-146.29;100.00;59205.81;5089130;28;20892;-68
2024/02/03 08:08:52;;;;;;;34.23;17.30;;;;;;;-146.29;100.00;59205.81;5089118;28;20434;-68
2024/02/03 08:11:17;;;;;;;27.57;15.53;;;;;;;-146.29;100.00;59205.81;5097284;28;20189;-68
2024/02/03 08:13:42;;;;;;;48.00;24.20;;;;;;;-146.29;100.00;59205.81;5097685;28;20315;-67
2024/02/03 08:16:08;;;;;;;226.80;90.90;;;;;;;-146.29;100.00;59205.81;5071000;28;20366;-68
2024/02/03 08:18:34;;;;;;;54.03;27.53;;;;;;;-146.29;100.00;59205.81;5088802;28;20186;-67
2024/02/03 08:20:59;;;;;;;78.03;40.00;;;;;;;-146.29;100.00;59205.81;5082052;28;20255;-69
2024/02/03 08:23:25;;;;;;;39.97;22.27;;;;;;;-146.29;100.00;59205.81;5090377;28;20206;-69
2024/02/03 08:25:50;;;;;;;23.33;14.17;;;;;;;-146.29;100.00;59205.81;5088988;28;20202;-68
2024/02/03 08:28:16;;;;;;;13.57;8.67;;;;;;;-146.29;100.00;59205.81;5089097;28;20186;-68
2024/02/03 08:30:42;;;;;;;22.13;10.53;;;;;;;-146.29;100.00;59205.81;5071120;28;20272;-67
2024/02/03 08:33:07;;;;;;;25.70;16.20;;;;;;;-146.29;100.00;59205.81;5068105;28;20872;-68
2024/02/03 08:35:33;;;;;;;37.23;21.93;;;;;;;-146.29;100.00;59205.81;5080609;28;20539;-68
2024/02/03 08:37:58;;;;;;;22.73;13.60;;;;;;;-146.29;100.00;59205.81;5080626;28;20261;-68
2024/02/03 08:40:24;;;;;;;16.90;10.00;;;;;;;-146.29;100.00;59205.81;5094591;28;20185;-69
2024/02/03 08:42:49;;;;;;;13.83;9.50;;;;;;;-146.29;100.00;59205.81;5088720;28;20248;-70
2024/02/03 08:45:15;;;;;;;12.23;9.23;;;;;;;-146.29;100.00;59205.81;5093517;28;20312;-68
2024/02/03 08:47:41;;;;;;;11.30;7.00;;;;;;;-146.29;100.00;59205.81;5088599;28;20178;-68
2024/02/03 08:50:06;;;;;;;6.93;5.57;;;;;;;-146.29;100.00;59205.81;5097898;28;20423;-68
2024/02/03 08:52:32;;;;;;;10.80;5.60;;;;;;;-146.29;100.00;59205.81;5071322;28;20174;-67
2024/02/03 08:55:00;;;;;;;8.83;5.40;;;;;;;-146.29;100.00;59205.81;5084218;28;20314;-68
2024/02/03 08:57:25;;;;;;;16.97;5.30;;;;;;;-146.29;100.00;59205.81;5088519;28;20586;-69
2024/02/03 08:59:51;;;;;;;10.10;5.93;;;;;;;-146.29;100.00;59205.81;5088150;28;20404;-69
2024/02/03 09:02:17;;;;;;;31.47;12.10;;;;;;;-146.29;100.00;59205.81;5082039;28;20293;-68
2024/02/03 09:04:42;;;;;;;24.47;15.50;;;;;;;-146.29;100.00;59205.81;5089463;28;20204;-69
2024/02/03 09:07:08;;;;;;;107.70;57.60;;;;;;;-146.29;100.00;59205.81;5089350;28;20199;-69
2024/02/03 09:09:33;;;;;;;74.10;44.27;;;;;;;-146.29;100.00;59205.81;5086691;28;20690;-71
2024/02/03 09:12:00;;;;;;;68.10;38.77;;;;;;;-146.29;100.00;59205.81;5090373;28;20177;-70
2024/02/03 09:14:26;;;;;;;14.90;10.50;;;;;;;-146.29;100.00;59205.81;5089698;28;20231;-70
2024/02/03 09:16:51;;;;;;;17.53;7.03;;;;;;;-146.29;100.00;59205.81;5082793;28;20419;-70
2024/02/03 09:19:17;;;;;;;6.67;5.60;;;;;;;-146.29;100.00;59205.81;5098177;28;20228;-69
2024/02/03 09:21:44;;;;;;;9.63;5.40;;;;;;;-146.29;100.00;59205.81;5088545;28;20216;-69
2024/02/03 09:24:09;;;;;;;6.10;5.50;;;;;;;-146.29;100.00;59205.81;5082360;28;20434;-70
2024/02/03 09:26:39;;;;;;;9.20;6.10;;;;;;;-146.29;100.00;59205.81;5091837;28;20198;-71
2024/02/03 09:29:05;;;;;;;6.30;5.70;;;;;;;-146.29;100.00;59205.81;5094541;28;20814;-69
2024/02/03 09:31:31;;;;;;;6.60;5.60;;;;;;;-146.29;100.00;59205.81;5095122;28;20428;-69
2024/02/03 09:33:58;;;;;;;8.00;5.90;;;;;;;-146.29;100.00;59205.81;5090661;28;20432;-69
2024/02/03 09:36:24;;;;;;;6.03;5.43;;;;;;;-146.29;100.00;59205.81;5072577;28;20201;-70
2024/02/03 09:38:49;;;;;;;7.83;5.20;;;;;;;-146.29;100.00;59205.81;5092597;28;20446;-68
2024/02/03 09:41:15;;;;;;;5.70;4.93;;;;;;;-146.29;100.00;59205.81;5088809;28;20311;-70
2024/02/03 09:43:42;;;;;;;4.77;4.07;;;;;;;-146.29;100.00;59205.81;5079666;28;20201;-68
2024/02/03 09:46:07;;;;;;;5.10;4.60;;;;;;;-146.29;100.00;59205.81;5088217;28;20323;-69
2024/02/03 09:48:33;;;;;;;4.67;4.17;;;;;;;-146.29;100.00;59205.81;5070931;28;20995;-68
2024/02/03 09:50:59;;;;;;;4.50;4.10;;;;;;;-146.29;100.00;59205.81;5091786;28;20189;-69
2024/02/03 09:53:25;;;;;;;4.70;4.07;;;;;;;-146.29;100.00;59205.81;5055680;28;20257;-71
2024/02/03 09:55:50;;;;;;;6.47;4.00;;;;;;;-146.29;100.00;59205.81;5063429;28;20444;-69
2024/02/03 09:58:16;;;;;;;6.70;4.87;;;;;;;-146.29;100.00;59205.81;5064518;28;20190;-68
2024/02/03 10:00:41;;;;;;;7.00;5.47;;;;;;;-146.29;100.00;59205.81;5092668;28;20657;-68
2024/02/03 10:03:18;;;;;;;7.93;4.97;;;;;;;-146.29;100.00;59205.81;5084823;28;20198;-68
2024/02/03 10:05:43;;;;;;;4.10;3.70;;;;;;;-146.29;100.00;59205.81;5085027;28;20324;-68
2024/02/03 10:08:10;;;;;;;4.67;3.63;;;;;;;-146.29;100.00;59205.81;5091419;28;20447;-69
2024/02/03 10:10:35;;;;;;;4.10;3.70;;;;;;;-146.29;100.00;59205.81;5091308;28;20190;-70
2024/02/03 10:13:04;;;;;;;3.90;3.53;;;;;;;-146.29;100.00;59205.81;5094391;28;21146;-71
2024/02/03 10:15:30;;;;;;;6.60;4.00;;;;;;;-146.29;100.00;59205.81;5085855;28;20222;-69
2024/02/03 10:17:58;;;;;;;3.57;3.23;;;;;;;-146.29;100.00;59205.81;5079226;28;20415;-71
2024/02/03 10:20:25;;;;;;;3.30;3.10;;;;;;;-146.29;100.00;59205.81;5091295;28;20435;-70
2024/02/03 10:22:50;;;;;;;4.80;3.20;;;;;;;-146.29;100.00;59205.81;5091541;28;20448;-70
2024/02/03 10:25:16;;;;;;;5.73;3.60;;;;;;;-146.29;100.00;59205.81;5085836;28;20443;-69
2024/02/03 10:27:42;;;;;;;4.40;3.10;;;;;;;-146.29;100.00;59205.81;5087961;28;20427;-69
2024/02/03 10:30:07;;;;;;;4.87;3.20;;;;;;;-146.29;100.00;59205.81;5090973;28;20184;-70
2024/02/03 10:32:33;;;;;;;3.40;3.10;;;;;;;-146.29;100.00;59205.81;5091675;28;20209;-70
2024/02/03 10:34:59;;;;;;;3.47;3.17;;;;;;;-146.29;100.00;59205.81;5100248;28;20257;-68
2024/02/03 10:37:24;;;;;;;4.17;3.50;;;;;;;-146.29;100.00;59205.81;5093098;28;20196;-68
2024/02/03 10:39:50;;;;;;;3.67;3.37;;;;;;;-146.29;100.00;59205.81;5078882;28;20178;-69
2024/02/03 10:42:22;;;;;;;7.33;3.47;;;;;;;-146.29;100.00;59205.81;5087707;28;20198;-68
2024/02/03 10:44:48;;;;;;;5.77;3.63;;;;;;;-146.29;100.00;59205.81;5083124;28;20214;-68
2024/02/03 10:47:19;;;;;;;3.60;3.30;;;;;;;-146.29;100.00;59205.81;5075009;28;20567;-70
2024/02/03 10:49:45;;;;;;;4.10;3.63;;;;;;;-146.29;100.00;59205.81;5090572;28;20433;-68
2024/02/03 10:52:11;;;;;;;4.03;3.63;;;;;;;-146.29;100.00;59205.81;5062782;28;20428;-70
2024/02/03 10:54:37;;;;;;;3.97;3.50;;;;;;;-146.29;100.00;59205.81;5073180;28;20478;-69
2024/02/03 10:57:04;;;;;;;3.73;3.43;;;;;;;-146.29;100.00;59205.81;5067325;28;20240;-69
2024/02/03 10:59:29;;;;;;;3.90;3.60;;;;;;;-146.29;100.00;59205.81;5085077;28;20431;-69